sensor_id;sensor_type;location;lat;lon;timestamp;pressure;altitude;pressure_sealevel;temperature
49557;BMP280;35462;45.048;7.666;2022-08-19T00:02:24;98294.50;;;23.71
49557;BMP280;35462;45.048;7.666;2022-08-19T00:17:43;98274.63;;;23.63
49557;BMP280;35462;45.048;7.666;2022-08-19T00:32:59;98246.06;;;23.38
49557;BMP280;35462;45.048;7.666;2022-08-19T00:48:14;98273.66;;;23.31
49557;BMP280;35462;45.048;7.666;2022-08-19T01:03:31;98284.59;;;23.15
49557;BMP280;35462;45.048;7.666;2022-08-19T01:18:48;98312.63;;;23.07
49557;BMP280;35462;45.048;7.666;2022-08-19T01:34:06;98335.78;;;22.97
49557;BMP280;35462;45.048;7.666;2022-08-19T01:49:24;98337.31;;;22.87
49557;BMP280;35462;45.048;7.666;2022-08-19T02:04:41;98337.53;;;22.89
49557;BMP280;35462;45.048;7.666;2022-08-19T02:19:57;98343.41;;;22.87
49557;BMP280;35462;45.048;7.666;2022-08-19T02:35:14;98335.13;;;22.80
49557;BMP280;35462;45.048;7.666;2022-08-19T02:50:29;98311.81;;;22.77
49557;BMP280;35462;45.048;7.666;2022-08-19T03:05:46;98307.19;;;22.66
49557;BMP280;35462;45.048;7.666;2022-08-19T03:21:02;98314.78;;;22.62
49557;BMP280;35462;45.048;7.666;2022-08-19T03:36:21;98290.28;;;22.60
49557;BMP280;35462;45.048;7.666;2022-08-19T03:51:38;98280.75;;;22.54
49557;BMP280;35462;45.048;7.666;2022-08-19T04:06:54;98273.16;;;22.47
49557;BMP280;35462;45.048;7.666;2022-08-19T04:22:10;98278.31;;;22.40
49557;BMP280;35462;45.048;7.666;2022-08-19T04:37:27;98274.91;;;22.34
49557;BMP280;35462;45.048;7.666;2022-08-19T04:52:43;98271.72;;;22.35
49557;BMP280;35462;45.048;7.666;2022-08-19T05:07:59;98271.69;;;22.46
49557;BMP280;35462;45.048;7.666;2022-08-19T05:23:15;98290.25;;;22.66
49557;BMP280;35462;45.048;7.666;2022-08-19T05:38:31;98288.66;;;22.92
49557;BMP280;35462;45.048;7.666;2022-08-19T05:53:47;98295.34;;;23.26
49557;BMP280;35462;45.048;7.666;2022-08-19T06:09:04;98316.00;;;23.18
49557;BMP280;35462;45.048;7.666;2022-08-19T06:24:22;98337.97;;;23.44
49557;BMP280;35462;45.048;7.666;2022-08-19T06:39:41;98364.75;;;24.77
49557;BMP280;35462;45.048;7.666;2022-08-19T06:54:58;98369.38;;;30.64
49557;BMP280;35462;45.048;7.666;2022-08-19T07:10:14;98370.81;;;34.00
49557;BMP280;35462;45.048;7.666;2022-08-19T07:25:30;98380.22;;;31.35
49557;BMP280;35462;45.048;7.666;2022-08-19T07:40:46;98382.63;;;30.36
49557;BMP280;35462;45.048;7.666;2022-08-19T07:56:04;98373.50;;;29.95
49557;BMP280;35462;45.048;7.666;2022-08-19T08:11:20;98383.03;;;30.25
49557;BMP280;35462;45.048;7.666;2022-08-19T08:26:36;98413.38;;;31.22
49557;BMP280;35462;45.048;7.666;2022-08-19T08:42:01;98417.38;;;31.46
49557;BMP280;35462;45.048;7.666;2022-08-19T08:57:39;98430.09;;;31.58
49557;BMP280;35462;45.048;7.666;2022-08-19T09:28:16;98419.38;;;30.97
49557;BMP280;35462;45.048;7.666;2022-08-19T09:43:33;98429.28;;;30.46
49557;BMP280;35462;45.048;7.666;2022-08-19T09:58:53;98442.13;;;29.98
49557;BMP280;35462;45.048;7.666;2022-08-19T10:14:09;98450.31;;;29.98
49557;BMP280;35462;45.048;7.666;2022-08-19T10:29:26;98434.16;;;29.78
49557;BMP280;35462;45.048;7.666;2022-08-19T10:44:44;98442.34;;;29.78
49557;BMP280;35462;45.048;7.666;2022-08-19T11:00:01;98439.06;;;29.95
49557;BMP280;35462;45.048;7.666;2022-08-19T11:15:17;98436.84;;;29.71
49557;BMP280;35462;45.048;7.666;2022-08-19T11:30:33;98431.03;;;29.82
49557;BMP280;35462;45.048;7.666;2022-08-19T11:45:49;98412.28;;;29.56
49557;BMP280;35462;45.048;7.666;2022-08-19T12:01:07;98397.34;;;29.57
49557;BMP280;35462;45.048;7.666;2022-08-19T12:16:26;98368.19;;;29.15
49557;BMP280;35462;45.048;7.666;2022-08-19T12:31:43;98370.56;;;29.18
49557;BMP280;35462;45.048;7.666;2022-08-19T12:46:59;98353.09;;;29.06
49557;BMP280;35462;45.048;7.666;2022-08-19T13:02:16;98331.59;;;28.88
49557;BMP280;35462;45.048;7.666;2022-08-19T13:17:33;98319.25;;;29.09
49557;BMP280;35462;45.048;7.666;2022-08-19T13:32:49;98316.53;;;29.09
49557;BMP280;35462;45.048;7.666;2022-08-19T13:48:20;98301.63;;;29.10
49557;BMP280;35462;45.048;7.666;2022-08-19T14:03:37;98295.44;;;29.17
49557;BMP280;35462;45.048;7.666;2022-08-19T14:18:53;98289.44;;;29.19
49557;BMP280;35462;45.048;7.666;2022-08-19T14:34:10;98275.41;;;29.30
49557;BMP280;35462;45.048;7.666;2022-08-19T14:49:27;98257.56;;;29.51
49557;BMP280;35462;45.048;7.666;2022-08-19T15:04:43;98261.56;;;29.42
49557;BMP280;35462;45.048;7.666;2022-08-19T15:19:59;98258.34;;;29.29
49557;BMP280;35462;45.048;7.666;2022-08-19T15:35:16;98257.25;;;29.17
49557;BMP280;35462;45.048;7.666;2022-08-19T15:50:35;98268.50;;;29.29
49557;BMP280;35462;45.048;7.666;2022-08-19T16:05:51;98270.69;;;29.23
49557;BMP280;35462;45.048;7.666;2022-08-19T16:21:24;98293.63;;;29.35
49557;BMP280;35462;45.048;7.666;2022-08-19T16:36:41;98298.69;;;29.31
49557;BMP280;35462;45.048;7.666;2022-08-19T16:51:58;98292.16;;;29.11
49557;BMP280;35462;45.048;7.666;2022-08-19T17:07:17;98316.16;;;29.20
49557;BMP280;35462;45.048;7.666;2022-08-19T17:22:34;98320.16;;;28.97
49557;BMP280;35462;45.048;7.666;2022-08-19T17:37:51;98343.59;;;28.92
49557;BMP280;35462;45.048;7.666;2022-08-19T17:53:09;98360.94;;;29.02
49557;BMP280;35462;45.048;7.666;2022-08-19T18:08:24;98367.81;;;28.96
49557;BMP280;35462;45.048;7.666;2022-08-19T18:23:41;98400.31;;;28.87
49557;BMP280;35462;45.048;7.666;2022-08-19T18:38:57;98429.19;;;28.75
49557;BMP280;35462;45.048;7.666;2022-08-19T18:54:28;98444.59;;;28.65
49557;BMP280;35462;45.048;7.666;2022-08-19T19:09:44;98445.59;;;28.47
49557;BMP280;35462;45.048;7.666;2022-08-19T19:25:06;98460.94;;;28.30
49557;BMP280;35462;45.048;7.666;2022-08-19T19:40:22;98473.63;;;28.27
49557;BMP280;35462;45.048;7.666;2022-08-19T19:55:38;98497.56;;;28.21
49557;BMP280;35462;45.048;7.666;2022-08-19T20:10:55;98521.84;;;28.19
49557;BMP280;35462;45.048;7.666;2022-08-19T20:26:15;98546.22;;;28.04
49557;BMP280;35462;45.048;7.666;2022-08-19T20:41:33;98554.25;;;27.89
49557;BMP280;35462;45.048;7.666;2022-08-19T20:56:50;98568.47;;;27.75
49557;BMP280;35462;45.048;7.666;2022-08-19T21:12:08;98582.22;;;27.57
49557;BMP280;35462;45.048;7.666;2022-08-19T21:27:28;98598.69;;;27.38
49557;BMP280;35462;45.048;7.666;2022-08-19T21:42:44;98596.72;;;27.26
49557;BMP280;35462;45.048;7.666;2022-08-19T21:58:01;98604.13;;;27.13
49557;BMP280;35462;45.048;7.666;2022-08-19T22:13:19;98598.50;;;26.98
49557;BMP280;35462;45.048;7.666;2022-08-19T22:28:36;98594.41;;;26.91
49557;BMP280;35462;45.048;7.666;2022-08-19T22:43:52;98592.38;;;26.79
49557;BMP280;35462;45.048;7.666;2022-08-19T22:59:08;98603.53;;;26.63
49557;BMP280;35462;45.048;7.666;2022-08-19T23:14:27;98601.03;;;26.52
49557;BMP280;35462;45.048;7.666;2022-08-19T23:29:45;98597.59;;;26.33
49557;BMP280;35462;45.048;7.666;2022-08-19T23:45:17;98606.94;;;26.19
